createdAt,value
2023-05-19T00:01:25.187Z,11.30
2023-05-19T00:03:57.897Z,11.30
2023-05-19T00:06:31.835Z,11.20
2023-05-19T00:09:03.810Z,11.20
2023-05-19T00:11:36.989Z,11.10
2023-05-19T00:14:09.566Z,11.10
2023-05-19T00:16:42.431Z,11.10
2023-05-19T00:19:12.516Z,11.10
2023-05-19T00:21:42.531Z,11.10
2023-05-19T00:24:13.314Z,11.10
2023-05-19T00:26:45.850Z,11.10
2023-05-19T00:29:18.692Z,11.10
2023-05-19T00:31:48.672Z,11.00
2023-05-19T00:34:18.747Z,10.90
2023-05-19T00:36:48.687Z,11.00
2023-05-19T00:39:18.592Z,11.00
2023-05-19T00:41:51.072Z,10.90
2023-05-19T00:44:20.981Z,10.90
2023-05-19T00:46:50.979Z,10.90
2023-05-19T00:49:20.969Z,11.00
2023-05-19T00:51:51.505Z,10.90
2023-05-19T00:54:23.273Z,10.90
2023-05-19T00:56:58.443Z,10.80
2023-05-19T00:59:28.422Z,10.80
2023-05-19T01:01:58.545Z,10.80
2023-05-19T01:04:29.814Z,10.70
2023-05-19T01:07:00.170Z,10.70
2023-05-19T01:09:30.789Z,10.70
2023-05-19T01:12:04.254Z,10.60
2023-05-19T01:14:34.204Z,10.60
2023-05-19T01:17:10.532Z,10.60
2023-05-19T01:20:02.321Z,10.60
2023-05-19T01:23:01.772Z,10.60
2023-05-19T01:25:51.131Z,10.60
2023-05-19T01:29:06.377Z,10.60
2023-05-19T01:31:40.545Z,10.50
2023-05-19T01:34:11.972Z,10.50
2023-05-19T01:36:44.981Z,10.50
2023-05-19T01:39:16.027Z,10.50
2023-05-19T01:41:48.330Z,10.50
2023-05-19T01:44:18.874Z,10.50
2023-05-19T01:46:52.353Z,10.50
2023-05-19T01:49:22.266Z,10.40
2023-05-19T01:51:52.366Z,10.40
2023-05-19T01:54:22.282Z,10.40
2023-05-19T01:57:01.135Z,10.50
2023-05-19T01:59:44.926Z,10.50
2023-05-19T02:02:28.567Z,10.50
2023-05-19T02:05:05.596Z,10.50
2023-05-19T02:07:47.087Z,10.60
2023-05-19T02:10:24.793Z,10.60
2023-05-19T02:12:56.964Z,10.50
2023-05-19T02:15:31.550Z,10.50
2023-05-19T02:18:05.531Z,10.50
2023-05-19T02:20:35.633Z,10.30
2023-05-19T02:23:05.553Z,10.20
2023-05-19T02:25:35.585Z,10.20
2023-05-19T02:28:06.862Z,10.10
2023-05-19T02:30:36.827Z,10.20
2023-05-19T02:33:11.533Z,10.20
2023-05-19T02:35:41.470Z,10.30
2023-05-19T02:38:11.473Z,10.20
2023-05-19T02:40:41.327Z,10.20
2023-05-19T02:43:11.248Z,10.00
2023-05-19T02:45:41.162Z,9.90
2023-05-19T02:48:13.842Z,9.90
2023-05-19T02:50:43.709Z,9.90
2023-05-19T02:53:13.598Z,9.90
2023-05-19T02:55:43.491Z,9.80
2023-05-19T02:58:13.611Z,9.90
2023-05-19T03:00:45.309Z,9.90
2023-05-19T03:03:18.399Z,9.90
2023-05-19T03:05:48.752Z,9.90
2023-05-19T03:08:18.754Z,10.00
2023-05-19T03:10:48.907Z,10.00
2023-05-19T03:13:19.692Z,9.90
2023-05-19T03:15:51.217Z,9.90
2023-05-19T03:18:27.032Z,9.90
2023-05-19T03:20:56.994Z,9.80
2023-05-19T03:23:27.420Z,9.80
2023-05-19T03:25:57.298Z,9.80
2023-05-19T03:28:27.446Z,9.70
2023-05-19T03:30:57.343Z,9.70
2023-05-19T03:33:30.633Z,9.70
2023-05-19T03:36:00.807Z,9.70
2023-05-19T03:38:30.796Z,9.70
2023-05-19T03:41:00.766Z,9.60
2023-05-19T03:43:30.670Z,9.60
2023-05-19T03:46:02.306Z,9.60
2023-05-19T03:48:34.928Z,9.60
2023-05-19T03:51:04.817Z,9.60
2023-05-19T03:53:34.686Z,9.50
2023-05-19T03:56:04.744Z,9.50
2023-05-19T03:58:34.623Z,9.40
2023-05-19T04:01:04.549Z,9.40
2023-05-19T04:03:37.045Z,9.30
2023-05-19T04:06:07.339Z,9.40
2023-05-19T04:08:37.221Z,9.40
2023-05-19T04:11:07.495Z,9.50
2023-05-19T04:13:37.641Z,9.50
2023-05-19T04:16:08.496Z,9.50
2023-05-19T04:18:40.996Z,9.50
2023-05-19T04:21:10.920Z,9.40
2023-05-19T04:23:40.849Z,9.50
2023-05-19T04:26:10.815Z,9.50
2023-05-19T04:28:42.478Z,9.60
2023-05-19T04:31:12.885Z,9.60
2023-05-19T04:33:46.216Z,9.60
2023-05-19T04:36:18.487Z,9.50
2023-05-19T04:38:48.538Z,9.50
2023-05-19T04:41:18.791Z,9.70
2023-05-19T04:43:48.704Z,9.90
2023-05-19T04:46:18.641Z,10.00
2023-05-19T04:48:51.228Z,10.20
2023-05-19T04:51:21.308Z,10.40
2023-05-19T04:53:51.764Z,10.60
2023-05-19T04:56:22.143Z,10.80
2023-05-19T04:58:53.827Z,10.90
2023-05-19T05:01:26.460Z,10.80
2023-05-19T05:03:59.309Z,11.00
2023-05-19T05:06:29.488Z,11.10
2023-05-19T05:09:00.105Z,11.30
2023-05-19T05:11:30.762Z,11.70
2023-05-19T05:14:01.146Z,11.80
2023-05-19T05:16:32.190Z,11.80
2023-05-19T05:19:05.865Z,12.80
2023-05-19T05:21:36.268Z,13.20
2023-05-19T05:24:07.018Z,13.20
2023-05-19T05:26:37.921Z,13.10
2023-05-19T05:29:07.813Z,13.40
2023-05-19T05:31:37.844Z,12.50
2023-05-19T05:34:10.554Z,13.40
2023-05-19T05:36:40.482Z,14.10
2023-05-19T05:39:10.523Z,13.20
2023-05-19T05:41:40.479Z,13.60
2023-05-19T05:44:10.477Z,14.20
2023-05-19T05:46:40.701Z,14.20
2023-05-19T05:49:14.443Z,14.60
2023-05-19T05:51:51.357Z,14.70
2023-05-19T05:54:32.329Z,14.40
2023-05-19T05:57:03.564Z,13.40
2023-05-19T05:59:34.054Z,13.20
2023-05-19T06:02:04.342Z,13.00
2023-05-19T06:04:36.861Z,13.10
2023-05-19T06:07:07.113Z,13.20
2023-05-19T06:09:37.383Z,13.50
2023-05-19T06:12:08.324Z,14.20
2023-05-19T06:14:38.235Z,14.70
2023-05-19T06:17:08.134Z,14.70
2023-05-19T06:19:40.660Z,15.20
2023-05-19T06:22:10.552Z,14.90
2023-05-19T06:24:40.468Z,14.60
2023-05-19T06:27:10.407Z,14.70
2023-05-19T06:29:40.319Z,14.40
2023-05-19T06:32:10.321Z,14.90
2023-05-19T06:34:43.205Z,15.80
2023-05-19T06:37:15.011Z,15.10
2023-05-19T06:39:45.076Z,14.50
2023-05-19T06:42:14.961Z,14.50
2023-05-19T06:44:44.826Z,14.40
2023-05-19T06:47:14.761Z,14.40
2023-05-19T06:49:50.790Z,14.60
2023-05-19T06:52:20.713Z,14.20
2023-05-19T06:54:50.685Z,13.80
2023-05-19T06:57:21.154Z,13.40
2023-05-19T06:59:51.169Z,13.60
2023-05-19T07:02:21.182Z,13.80
2023-05-19T07:04:54.108Z,13.80
2023-05-19T07:07:24.010Z,14.20
2023-05-19T07:09:53.918Z,14.40
2023-05-19T07:12:23.809Z,14.40
2023-05-19T07:14:56.206Z,14.60
2023-05-19T07:17:26.248Z,14.30
2023-05-19T07:19:58.986Z,14.50
2023-05-19T07:22:28.963Z,14.20
2023-05-19T07:24:58.882Z,14.30
2023-05-19T07:27:28.836Z,14.40
2023-05-19T07:29:58.691Z,14.40
2023-05-19T07:32:28.894Z,14.20
2023-05-19T07:35:01.470Z,14.10
2023-05-19T07:37:31.486Z,14.10
2023-05-19T07:40:01.524Z,14.30
2023-05-19T07:42:31.484Z,14.10
2023-05-19T07:45:01.387Z,14.20
2023-05-19T07:47:33.003Z,14.20
2023-05-19T07:50:05.607Z,14.20
2023-05-19T07:52:35.519Z,14.20
2023-05-19T07:55:05.426Z,14.20
2023-05-19T07:57:35.306Z,14.20
2023-05-19T08:00:07.766Z,14.00
2023-05-19T08:02:37.776Z,14.40
2023-05-19T08:05:11.997Z,14.50
2023-05-19T08:07:41.857Z,14.60
2023-05-19T08:10:12.236Z,14.70
2023-05-19T08:12:42.088Z,14.90
2023-05-19T08:15:13.532Z,15.10
2023-05-19T08:17:43.489Z,15.00
2023-05-19T08:20:16.226Z,14.80
2023-05-19T08:22:46.204Z,14.50
2023-05-19T08:25:16.198Z,14.50
2023-05-19T08:27:46.219Z,14.70
2023-05-19T08:30:16.814Z,14.70
2023-05-19T08:32:47.241Z,14.30
2023-05-19T08:35:19.853Z,14.20
2023-05-19T08:37:49.799Z,14.20
2023-05-19T08:40:21.062Z,14.10
2023-05-19T08:42:51.455Z,14.30
2023-05-19T08:45:21.454Z,14.10
2023-05-19T08:47:53.825Z,14.20
2023-05-19T08:50:32.352Z,14.30
2023-05-19T08:55:43.948Z,14.30
2023-05-19T08:58:16.454Z,14.20
2023-05-19T09:00:47.724Z,14.30
2023-05-19T09:05:55.668Z,14.10
2023-05-19T09:08:25.675Z,14.10
2023-05-19T09:10:55.731Z,14.30
2023-05-19T09:13:26.398Z,14.20
2023-05-19T09:15:56.677Z,14.30
2023-05-19T09:18:28.262Z,14.20
2023-05-19T09:21:03.377Z,14.20
2023-05-19T09:23:35.349Z,14.60
2023-05-19T09:26:07.699Z,14.50
2023-05-19T09:28:39.510Z,14.50
2023-05-19T09:31:11.242Z,14.20
2023-05-19T09:33:45.623Z,14.30
2023-05-19T09:36:18.708Z,14.40
2023-05-19T09:38:49.396Z,14.40
2023-05-19T09:41:19.498Z,14.60
2023-05-19T09:43:57.716Z,14.70
2023-05-19T09:46:30.431Z,14.80
2023-05-19T09:49:01.064Z,14.70
2023-05-19T09:51:33.656Z,14.80
2023-05-19T09:54:04.556Z,14.60
2023-05-19T09:56:37.294Z,14.60
2023-05-19T09:59:07.345Z,14.60
2023-05-19T10:01:40.518Z,14.70
2023-05-19T10:04:11.069Z,14.90
2023-05-19T10:06:47.710Z,15.00
2023-05-19T10:09:18.946Z,15.00
2023-05-19T10:11:49.117Z,14.90
2023-05-19T10:14:20.500Z,14.90
2023-05-19T10:16:57.452Z,15.00
2023-05-19T10:19:29.635Z,15.10
2023-05-19T10:22:02.362Z,15.20
2023-05-19T10:24:32.253Z,15.10
2023-05-19T10:27:08.025Z,15.10
2023-05-19T10:29:42.425Z,15.20
2023-05-19T10:32:17.745Z,15.20
2023-05-19T10:35:09.147Z,15.40
2023-05-19T10:37:49.290Z,15.50
2023-05-19T10:40:24.513Z,15.50
2023-05-19T10:43:07.485Z,15.10
2023-05-19T10:45:50.720Z,15.10
2023-05-19T10:48:23.609Z,15.00
2023-05-19T10:50:56.989Z,15.10
2023-05-19T10:53:35.163Z,15.20
2023-05-19T10:56:07.750Z,15.20
2023-05-19T10:58:42.268Z,15.30
2023-05-19T11:01:15.802Z,15.50
2023-05-19T11:03:52.405Z,15.40
2023-05-19T11:06:29.947Z,15.30
2023-05-19T11:09:05.817Z,15.30
2023-05-19T11:11:49.281Z,15.40
2023-05-19T11:14:21.713Z,15.40
2023-05-19T11:16:52.593Z,15.50
2023-05-19T11:19:28.065Z,15.50
2023-05-19T11:21:59.520Z,15.60
2023-05-19T11:24:52.376Z,15.50
2023-05-19T11:27:29.026Z,15.50
2023-05-19T11:30:00.313Z,15.50
2023-05-19T11:32:33.689Z,15.50
2023-05-19T11:35:05.179Z,15.60
2023-05-19T11:37:36.006Z,15.50
2023-05-19T11:40:09.965Z,15.50
2023-05-19T11:42:39.983Z,15.60
2023-05-19T11:45:12.032Z,15.70
2023-05-19T11:47:59.733Z,15.70
2023-05-19T11:50:31.403Z,15.60
2023-05-19T11:53:04.059Z,15.70
2023-05-19T11:55:37.112Z,15.70
2023-05-19T11:58:07.708Z,15.90
2023-05-19T12:00:40.483Z,16.10
2023-05-19T12:03:11.585Z,16.40
2023-05-19T12:05:47.851Z,16.60
2023-05-19T12:08:20.214Z,16.30
2023-05-19T12:10:56.390Z,16.20
2023-05-19T12:13:26.451Z,15.90
2023-05-19T12:15:56.473Z,15.80
2023-05-19T12:18:26.451Z,15.80
2023-05-19T12:20:56.390Z,15.80
2023-05-19T12:23:27.450Z,15.80
2023-05-19T12:26:01.105Z,15.80
2023-05-19T12:28:33.116Z,15.80
2023-05-19T12:31:05.159Z,16.00
2023-05-19T12:33:36.165Z,15.70
2023-05-19T12:36:06.481Z,15.80
2023-05-19T12:38:37.576Z,15.60
2023-05-19T12:41:10.262Z,15.20
2023-05-19T12:43:40.186Z,15.50
2023-05-19T12:46:13.788Z,15.50
2023-05-19T12:48:44.427Z,15.60
2023-05-19T12:51:18.842Z,15.60
2023-05-19T12:53:49.105Z,15.40
2023-05-19T12:56:22.260Z,15.50
2023-05-19T12:58:57.400Z,15.30
2023-05-19T13:01:27.452Z,15.40
2023-05-19T13:03:57.564Z,15.80
2023-05-19T13:06:27.548Z,15.70
2023-05-19T13:08:57.455Z,15.80
2023-05-19T13:11:30.129Z,15.60
2023-05-19T13:14:00.211Z,15.40
2023-05-19T13:16:30.876Z,15.30
2023-05-19T13:19:01.539Z,15.30
2023-05-19T13:21:31.723Z,15.50
2023-05-19T13:24:01.642Z,15.50
2023-05-19T13:26:34.204Z,15.40
2023-05-19T13:29:04.460Z,15.40
2023-05-19T13:31:34.619Z,15.50
2023-05-19T13:34:05.112Z,15.50
2023-05-19T13:36:36.628Z,15.80
2023-05-19T13:39:06.880Z,15.60
2023-05-19T13:41:39.437Z,15.70
2023-05-19T13:44:09.387Z,15.80
2023-05-19T13:46:45.686Z,15.80
2023-05-19T13:49:16.376Z,16.00
2023-05-19T13:51:46.577Z,16.00
2023-05-19T13:54:16.700Z,15.80
2023-05-19T13:56:49.174Z,15.80
2023-05-19T13:59:19.363Z,15.90
2023-05-19T14:01:49.346Z,16.00
2023-05-19T14:04:21.503Z,16.10
2023-05-19T14:06:51.501Z,16.00
2023-05-19T14:09:21.472Z,16.00
2023-05-19T14:11:53.990Z,15.80
2023-05-19T14:14:23.904Z,15.90
2023-05-19T14:16:53.928Z,15.80
2023-05-19T14:19:24.364Z,15.70
2023-05-19T14:21:54.294Z,15.60
2023-05-19T14:24:24.307Z,15.60
2023-05-19T14:26:56.755Z,15.60
2023-05-19T14:29:26.628Z,15.70
2023-05-19T14:31:56.607Z,15.60
2023-05-19T14:34:26.716Z,15.80
2023-05-19T14:36:56.834Z,15.80
2023-05-19T14:39:26.805Z,15.80
2023-05-19T14:41:59.618Z,15.90
2023-05-19T14:44:33.436Z,15.80
2023-05-19T14:47:04.181Z,15.80
2023-05-19T14:49:34.096Z,15.90
2023-05-19T14:52:04.156Z,16.00
2023-05-19T14:54:34.088Z,15.90
2023-05-19T14:57:08.273Z,16.00
2023-05-19T14:59:40.047Z,16.10
2023-05-19T15:02:12.057Z,16.00
2023-05-19T15:04:41.973Z,16.20
2023-05-19T15:07:11.887Z,16.30
2023-05-19T15:09:41.781Z,16.10
2023-05-19T15:12:14.322Z,16.10
2023-05-19T15:14:44.212Z,15.90
2023-05-19T15:17:14.914Z,16.00
2023-05-19T15:19:44.959Z,16.10
2023-05-19T15:22:14.948Z,16.10
2023-05-19T15:24:44.897Z,16.30
2023-05-19T15:27:17.530Z,16.30
2023-05-19T15:29:47.422Z,16.30
2023-05-19T15:32:17.351Z,16.30
2023-05-19T15:34:47.270Z,16.40
2023-05-19T15:37:17.176Z,16.30
2023-05-19T15:39:47.182Z,16.20
2023-05-19T15:42:19.732Z,16.20
2023-05-19T15:44:49.642Z,16.30
2023-05-19T15:47:19.602Z,16.30
2023-05-19T15:49:49.500Z,16.40
2023-05-19T15:52:19.448Z,16.50
2023-05-19T15:54:49.466Z,16.50
2023-05-19T15:57:21.920Z,16.50
2023-05-19T15:59:51.901Z,16.60
2023-05-19T16:02:21.873Z,16.70
2023-05-19T16:04:51.822Z,16.60
2023-05-19T16:07:23.891Z,16.60
2023-05-19T16:09:53.830Z,16.80
2023-05-19T16:12:27.604Z,17.00
2023-05-19T16:14:57.694Z,17.10
2023-05-19T16:17:27.781Z,16.90
2023-05-19T16:19:57.737Z,17.00
2023-05-19T16:22:27.710Z,17.00
2023-05-19T16:24:57.648Z,16.70
2023-05-19T16:27:30.235Z,16.90
2023-05-19T16:30:01.238Z,16.80
2023-05-19T16:32:31.319Z,16.90
2023-05-19T16:35:01.196Z,16.90
2023-05-19T16:37:31.196Z,17.10
2023-05-19T16:40:01.443Z,17.20
2023-05-19T16:42:33.931Z,17.20
2023-05-19T16:45:03.850Z,17.00
2023-05-19T16:47:33.965Z,17.10
2023-05-19T16:50:03.866Z,17.20
2023-05-19T16:52:34.037Z,17.20
2023-05-19T16:55:03.942Z,16.90
2023-05-19T16:57:36.473Z,16.90
2023-05-19T17:00:06.957Z,17.00
2023-05-19T17:02:36.923Z,16.80
2023-05-19T17:05:07.552Z,16.80
2023-05-19T17:07:37.492Z,16.60
2023-05-19T17:10:08.194Z,16.70
2023-05-19T17:12:40.658Z,16.70
2023-05-19T17:15:11.653Z,16.60
2023-05-19T17:17:41.676Z,16.60
2023-05-19T17:20:13.466Z,16.70
2023-05-19T17:22:43.359Z,16.70
2023-05-19T17:25:13.320Z,16.70
2023-05-19T17:27:46.092Z,16.70
2023-05-19T17:30:16.408Z,16.80
2023-05-19T17:32:46.726Z,17.00
2023-05-19T17:35:17.160Z,17.70
2023-05-19T17:37:47.173Z,17.40
2023-05-19T17:40:17.361Z,17.40
2023-05-19T17:42:49.889Z,16.80
2023-05-19T17:45:19.989Z,17.70
2023-05-19T17:47:50.279Z,18.00
2023-05-19T17:50:20.259Z,16.90
2023-05-19T17:52:50.677Z,16.70
2023-05-19T17:55:21.882Z,17.10
2023-05-19T17:57:54.632Z,17.30
2023-05-19T18:00:25.863Z,16.70
2023-05-19T18:02:57.125Z,16.70
2023-05-19T18:05:27.933Z,16.50
2023-05-19T18:08:03.277Z,16.80
2023-05-19T18:10:34.946Z,16.70
2023-05-19T18:13:08.236Z,17.00
2023-05-19T18:15:38.871Z,16.80
2023-05-19T18:18:10.703Z,16.40
2023-05-19T18:20:44.341Z,16.20
2023-05-19T18:23:14.776Z,16.00
2023-05-19T18:25:51.211Z,15.90
2023-05-19T18:28:23.760Z,15.80
2023-05-19T18:31:02.034Z,15.70
2023-05-19T18:33:31.967Z,15.70
2023-05-19T18:36:02.496Z,15.60
2023-05-19T18:38:32.442Z,15.50
2023-05-19T18:41:02.435Z,15.40
2023-05-19T18:43:34.937Z,15.30
2023-05-19T18:46:04.874Z,15.30
2023-05-19T18:48:36.259Z,15.20
2023-05-19T18:51:07.429Z,15.10
2023-05-19T18:53:37.656Z,15.00
2023-05-19T18:56:07.865Z,15.00
2023-05-19T18:58:40.370Z,14.90
2023-05-19T19:01:10.278Z,14.80
2023-05-19T19:03:40.156Z,14.80
2023-05-19T19:06:10.062Z,14.70
2023-05-19T19:08:40.076Z,14.70
2023-05-19T19:11:11.441Z,14.60
2023-05-19T19:13:44.004Z,14.50
2023-05-19T19:16:14.258Z,14.50
2023-05-19T19:18:44.261Z,14.50
2023-05-19T19:21:14.269Z,14.40
2023-05-19T19:23:44.169Z,14.40
2023-05-19T19:26:14.070Z,14.40
2023-05-19T19:28:46.956Z,14.40
2023-05-19T19:31:16.903Z,14.50
2023-05-19T19:33:46.943Z,14.50
2023-05-19T19:36:16.925Z,14.50
2023-05-19T19:38:46.848Z,14.50
2023-05-19T19:41:16.798Z,14.60
2023-05-19T19:43:49.276Z,14.60
2023-05-19T19:46:19.174Z,14.50
2023-05-19T19:48:49.410Z,14.50
2023-05-19T19:51:19.280Z,14.50
2023-05-19T19:53:49.197Z,14.50
2023-05-19T19:56:19.244Z,14.50
2023-05-19T19:58:51.718Z,14.50
2023-05-19T20:01:23.811Z,14.40
2023-05-19T20:03:53.926Z,14.40
2023-05-19T20:06:24.182Z,14.40
2023-05-19T20:08:54.132Z,14.50
2023-05-19T20:11:29.801Z,14.50
2023-05-19T20:14:02.296Z,14.40
2023-05-19T20:16:32.326Z,14.40
2023-05-19T20:19:02.410Z,14.40
2023-05-19T20:21:32.369Z,14.40
2023-05-19T20:24:02.491Z,14.30
2023-05-19T20:26:32.495Z,14.30
2023-05-19T20:29:04.998Z,14.30
2023-05-19T20:31:34.881Z,14.30
2023-05-19T20:34:04.786Z,14.30
2023-05-19T20:36:34.786Z,14.30
2023-05-19T20:39:04.706Z,14.30
2023-05-19T20:41:34.661Z,14.30
2023-05-19T20:44:08.548Z,14.30
2023-05-19T20:46:38.577Z,14.30
2023-05-19T20:49:08.587Z,14.20
2023-05-19T20:51:38.514Z,14.10
2023-05-19T20:54:08.405Z,14.00
2023-05-19T20:56:38.315Z,14.10
2023-05-19T20:59:10.865Z,14.00
2023-05-19T21:01:41.423Z,14.10
2023-05-19T21:04:11.521Z,14.00
2023-05-19T21:06:41.538Z,14.00
2023-05-19T21:09:11.474Z,14.00
2023-05-19T21:11:41.394Z,14.00
2023-05-19T21:14:13.857Z,14.00
2023-05-19T21:16:43.877Z,13.90
2023-05-19T21:19:13.984Z,13.90
2023-05-19T21:21:45.093Z,13.90
2023-05-19T21:24:15.172Z,13.90
2023-05-19T21:26:45.922Z,13.90
2023-05-19T21:29:18.477Z,13.90
2023-05-19T21:31:48.415Z,13.90
2023-05-19T21:34:18.353Z,13.90
2023-05-19T21:36:49.976Z,13.90
2023-05-19T21:39:20.052Z,13.90
2023-05-19T21:41:51.363Z,13.90
2023-05-19T21:44:25.277Z,13.90
2023-05-19T21:46:55.252Z,13.90
2023-05-19T21:49:25.660Z,13.80
2023-05-19T21:51:55.809Z,13.80
2023-05-19T21:54:25.718Z,13.60
2023-05-19T21:56:55.667Z,13.60
2023-05-19T21:59:28.194Z,13.60
2023-05-19T22:01:58.595Z,13.50
2023-05-19T22:04:31.555Z,13.40
2023-05-19T22:07:01.597Z,13.30
2023-05-19T22:09:32.047Z,13.30
2023-05-19T22:12:01.999Z,13.20
2023-05-19T22:14:34.445Z,13.20
2023-05-19T22:17:04.469Z,13.10
2023-05-19T22:19:34.413Z,13.00
2023-05-19T22:22:13.145Z,12.90
2023-05-19T22:24:44.493Z,12.90
2023-05-19T22:27:14.513Z,12.80
2023-05-19T22:29:46.981Z,12.70
2023-05-19T22:32:18.521Z,12.60
2023-05-19T22:34:48.856Z,12.60
2023-05-19T22:37:18.732Z,12.60
2023-05-19T22:39:48.691Z,12.50
2023-05-19T22:42:18.664Z,12.50
2023-05-19T22:44:51.250Z,12.50
2023-05-19T22:47:21.752Z,12.40
2023-05-19T22:49:54.807Z,12.30
2023-05-19T22:52:25.597Z,12.40
2023-05-19T22:54:55.533Z,12.20
2023-05-19T22:57:25.649Z,12.10
2023-05-19T22:59:58.190Z,12.10
2023-05-19T23:02:28.116Z,12.00
2023-05-19T23:04:59.667Z,12.00
2023-05-19T23:07:29.625Z,11.90
2023-05-19T23:09:59.557Z,11.90
2023-05-19T23:12:29.537Z,11.80
2023-05-19T23:15:02.313Z,11.70
2023-05-19T23:17:32.289Z,11.70
2023-05-19T23:20:02.318Z,11.70
2023-05-19T23:22:32.240Z,11.80
2023-05-19T23:25:05.796Z,11.70
2023-05-19T23:27:35.740Z,11.70
2023-05-19T23:30:09.627Z,11.70
2023-05-19T23:32:41.070Z,11.60
2023-05-19T23:35:15.601Z,11.60
2023-05-19T23:37:45.609Z,11.60
2023-05-19T23:40:16.040Z,11.60
2023-05-19T23:42:46.510Z,11.60
2023-05-19T23:45:19.063Z,11.70
2023-05-19T23:47:49.011Z,11.70
2023-05-19T23:50:19.608Z,11.60
2023-05-19T23:52:50.340Z,11.70
2023-05-19T23:55:20.510Z,11.60
2023-05-19T23:57:50.426Z,11.70
